Lamco Airport

Jump to: basic info | weather | comments

Related pages: nearby airports | nearby navaids | notams | map

Basic information (top)

Codes: UCN GLLB
Location: lon 5.867000, lat -10.050000, elev 30 ft / 9 m msl
Status: small_airport
Scheduled airline service: no
Links: Wikipedia Mobile

Weather (top)

Current conditions for Roberts International Airport 29nm (53km) NW (rec'd 2014/11/27 22:30Z):

GLRB 272230Z 00000KT 9999 SCT012 FEW023 CB 25/24 Q1012 RMK CB-E

Airport forecast for Roberts International Airport 29nm (53km) NW (rec'd 2014/11/27 18:54Z):

TAF TAF GLRB 271600Z 2718/2824 26010KT 9999 TS BKN015 FEW026CB 
      TEMPO 2719/2723 27008KT 9000 
      BECMG 2800/2802 33006KT 6000 RA/TSRA SCT003 BKN014 FEW024CB 
      TEMPO 2803/2808 20006KT 9999 BKN016 FEW025CB

Latest comments (top)

No comments yet for Lamco Airport

More... (top)

See also NOTAMs and nearby airports and navaids, or visit the Lamco Airport page at the main OurAirports website..